sensor_id;sensor_type;location;lat;lon;timestamp;pressure;altitude;pressure_sealevel;temperature;humidity
12471;BME280;36499;46.484;13.832;2023-04-27T00:02:00;93141.09;;;9.00;74.53
12471;BME280;36499;46.484;13.832;2023-04-27T00:04:29;93139.09;;;9.02;75.46
12471;BME280;36499;46.484;13.832;2023-04-27T00:06:56;93133.88;;;9.02;74.42
12471;BME280;36499;46.484;13.832;2023-04-27T00:09:23;93131.09;;;9.10;74.64
12471;BME280;36499;46.484;13.832;2023-04-27T00:11:50;93132.28;;;9.21;74.27
12471;BME280;36499;46.484;13.832;2023-04-27T00:14:17;93140.66;;;9.29;73.69
12471;BME280;36499;46.484;13.832;2023-04-27T00:16:45;93138.84;;;9.30;73.16
12471;BME280;36499;46.484;13.832;2023-04-27T00:19:12;93140.47;;;9.31;73.67
12471;BME280;36499;46.484;13.832;2023-04-27T00:21:41;93134.25;;;9.38;73.29
12471;BME280;36499;46.484;13.832;2023-04-27T00:24:08;93134.25;;;9.38;73.03
12471;BME280;36499;46.484;13.832;2023-04-27T00:26:35;93136.22;;;9.49;72.64
12471;BME280;36499;46.484;13.832;2023-04-27T00:29:02;93129.78;;;9.52;72.74
12471;BME280;36499;46.484;13.832;2023-04-27T00:31:29;93127.41;;;9.50;72.35
12471;BME280;36499;46.484;13.832;2023-04-27T00:33:56;93144.00;;;9.49;72.52
12471;BME280;36499;46.484;13.832;2023-04-27T00:36:23;93142.00;;;9.51;71.99
12471;BME280;36499;46.484;13.832;2023-04-27T00:38:53;93144.78;;;9.56;72.41
12471;BME280;36499;46.484;13.832;2023-04-27T00:41:20;93136.00;;;9.57;71.57
12471;BME280;36499;46.484;13.832;2023-04-27T00:43:47;93134.19;;;9.58;71.85
12471;BME280;36499;46.484;13.832;2023-04-27T00:46:17;93135.75;;;9.59;71.01
12471;BME280;36499;46.484;13.832;2023-04-27T00:48:45;93137.75;;;9.63;71.20
12471;BME280;36499;46.484;13.832;2023-04-27T00:51:13;93132.56;;;9.63;71.41
12471;BME280;36499;46.484;13.832;2023-04-27T00:53:41;93134.97;;;9.65;71.39
12471;BME280;36499;46.484;13.832;2023-04-27T00:56:11;93132.56;;;9.63;70.74
12471;BME280;36499;46.484;13.832;2023-04-27T00:58:38;93120.34;;;9.64;70.30
12471;BME280;36499;46.484;13.832;2023-04-27T01:01:05;93134.75;;;9.67;70.38
12471;BME280;36499;46.484;13.832;2023-04-27T01:03:33;93136.75;;;9.64;70.40
12471;BME280;36499;46.484;13.832;2023-04-27T01:06:00;93128.53;;;9.68;69.98
12471;BME280;36499;46.484;13.832;2023-04-27T01:08:28;93140.56;;;9.69;69.71
12471;BME280;36499;46.484;13.832;2023-04-27T01:10:55;93130.56;;;9.66;70.19
12471;BME280;36499;46.484;13.832;2023-04-27T01:13:23;93130.56;;;9.66;70.03
12471;BME280;36499;46.484;13.832;2023-04-27T01:15:50;93132.38;;;9.65;69.98
12471;BME280;36499;46.484;13.832;2023-04-27T01:18:17;93134.56;;;9.68;69.45
12471;BME280;36499;46.484;13.832;2023-04-27T01:20:44;93132.56;;;9.70;68.87
12471;BME280;36499;46.484;13.832;2023-04-27T01:23:14;93130.94;;;9.69;68.85
12471;BME280;36499;46.484;13.832;2023-04-27T01:25:41;93132.56;;;9.70;68.58
12471;BME280;36499;46.484;13.832;2023-04-27T01:28:08;93131.75;;;9.70;67.98
12471;BME280;36499;46.484;13.832;2023-04-27T01:30:35;93126.31;;;9.71;68.43
12471;BME280;36499;46.484;13.832;2023-04-27T01:33:02;93138.94;;;9.68;67.69
12471;BME280;36499;46.484;13.832;2023-04-27T01:35:30;93139.13;;;9.73;67.83
12471;BME280;36499;46.484;13.832;2023-04-27T01:37:57;93146.72;;;9.74;68.20
12471;BME280;36499;46.484;13.832;2023-04-27T01:40:26;93151.53;;;9.77;67.43
12471;BME280;36499;46.484;13.832;2023-04-27T01:42:53;93146.34;;;9.77;67.77
12471;BME280;36499;46.484;13.832;2023-04-27T01:45:20;93149.75;;;9.78;67.71
12471;BME280;36499;46.484;13.832;2023-04-27T01:47:50;93143.97;;;9.69;67.32
12471;BME280;36499;46.484;13.832;2023-04-27T01:50:17;93146.13;;;9.79;67.02
12471;BME280;36499;46.484;13.832;2023-04-27T01:52:44;93156.97;;;9.69;67.06
12471;BME280;36499;46.484;13.832;2023-04-27T01:55:12;93156.38;;;9.74;66.58
12471;BME280;36499;46.484;13.832;2023-04-27T01:57:40;93164.94;;;9.74;66.48
12471;BME280;36499;46.484;13.832;2023-04-27T02:00:09;93161.38;;;9.69;67.22
12471;BME280;36499;46.484;13.832;2023-04-27T02:02:36;93170.41;;;9.66;67.09
12471;BME280;36499;46.484;13.832;2023-04-27T02:05:04;93163.00;;;9.70;67.04
12471;BME280;36499;46.484;13.832;2023-04-27T02:07:31;93161.19;;;9.63;67.02
12471;BME280;36499;46.484;13.832;2023-04-27T02:09:58;93169.03;;;9.57;67.12
12471;BME280;36499;46.484;13.832;2023-04-27T02:12:25;93165.41;;;9.64;66.66
12471;BME280;36499;46.484;13.832;2023-04-27T02:14:53;93167.81;;;9.66;67.22
12471;BME280;36499;46.484;13.832;2023-04-27T02:17:20;93174.19;;;9.70;66.77
12471;BME280;36499;46.484;13.832;2023-04-27T02:19:47;93172.41;;;9.64;66.97
12471;BME280;36499;46.484;13.832;2023-04-27T02:22:14;93176.81;;;9.63;67.18
12471;BME280;36499;46.484;13.832;2023-04-27T02:24:42;93178.22;;;9.59;67.24
12471;BME280;36499;46.484;13.832;2023-04-27T02:27:09;93177.59;;;9.64;67.54
12471;BME280;36499;46.484;13.832;2023-04-27T02:29:36;93177.03;;;9.62;67.68
12471;BME280;36499;46.484;13.832;2023-04-27T02:32:05;93184.03;;;9.61;67.56
12471;BME280;36499;46.484;13.832;2023-04-27T02:34:32;93189.66;;;9.58;67.43
12471;BME280;36499;46.484;13.832;2023-04-27T02:36:59;93181.22;;;9.63;67.76
12471;BME280;36499;46.484;13.832;2023-04-27T02:39:26;93186.63;;;9.61;68.15
12471;BME280;36499;46.484;13.832;2023-04-27T02:41:53;93193.03;;;9.59;67.98
12471;BME280;36499;46.484;13.832;2023-04-27T02:44:20;93189.63;;;9.52;68.16
12471;BME280;36499;46.484;13.832;2023-04-27T02:46:48;93192.25;;;9.58;68.32
12471;BME280;36499;46.484;13.832;2023-04-27T02:49:17;93188.22;;;9.56;67.98
12471;BME280;36499;46.484;13.832;2023-04-27T02:51:44;93186.22;;;9.51;68.32
12471;BME280;36499;46.484;13.832;2023-04-27T02:54:11;93193.03;;;9.59;67.81
12471;BME280;36499;46.484;13.832;2023-04-27T02:56:38;93192.03;;;9.60;67.63
12471;BME280;36499;46.484;13.832;2023-04-27T02:59:05;93179.44;;;9.57;67.31
12471;BME280;36499;46.484;13.832;2023-04-27T03:01:32;93191.44;;;9.58;67.40
12471;BME280;36499;46.484;13.832;2023-04-27T03:03:59;93188.22;;;9.56;67.36
12471;BME280;36499;46.484;13.832;2023-04-27T03:06:27;93189.84;;;9.57;67.92
12471;BME280;36499;46.484;13.832;2023-04-27T03:08:54;93184.81;;;9.55;67.51
12471;BME280;36499;46.484;13.832;2023-04-27T03:11:21;93180.63;;;9.48;67.98
12471;BME280;36499;46.484;13.832;2023-04-27T03:13:48;93182.63;;;9.52;68.04
12471;BME280;36499;46.484;13.832;2023-04-27T03:16:15;93180.88;;;9.46;67.54
12471;BME280;36499;46.484;13.832;2023-04-27T03:18:42;93176.06;;;9.43;67.68
12471;BME280;36499;46.484;13.832;2023-04-27T03:21:11;93174.25;;;9.44;67.45
12471;BME280;36499;46.484;13.832;2023-04-27T03:23:39;93171.06;;;9.35;67.62
12471;BME280;36499;46.484;13.832;2023-04-27T03:26:07;93165.88;;;9.35;68.14
12471;BME280;36499;46.484;13.832;2023-04-27T03:28:35;93161.06;;;9.32;67.63
12471;BME280;36499;46.484;13.832;2023-04-27T03:31:04;93169.88;;;9.31;68.04
12471;BME280;36499;46.484;13.832;2023-04-27T03:33:32;93170.47;;;9.33;67.61
12471;BME280;36499;46.484;13.832;2023-04-27T03:35:59;93173.09;;;9.20;68.25
12471;BME280;36499;46.484;13.832;2023-04-27T03:38:27;93159.69;;;9.17;68.14
12471;BME280;36499;46.484;13.832;2023-04-27T03:40:56;93167.50;;;9.17;67.94
12471;BME280;36499;46.484;13.832;2023-04-27T03:43:24;93167.91;;;9.07;67.90
12471;BME280;36499;46.484;13.832;2023-04-27T03:45:52;93173.50;;;9.10;68.17
12471;BME280;36499;46.484;13.832;2023-04-27T03:48:19;93175.69;;;9.07;68.25
12471;BME280;36499;46.484;13.832;2023-04-27T03:50:47;93185.09;;;9.08;68.33
12471;BME280;36499;46.484;13.832;2023-04-27T03:53:14;93185.69;;;9.03;68.59
12471;BME280;36499;46.484;13.832;2023-04-27T03:55:43;93188.50;;;8.95;68.71
12471;BME280;36499;46.484;13.832;2023-04-27T03:58:12;93186.31;;;8.92;69.12
12471;BME280;36499;46.484;13.832;2023-04-27T04:00:39;93197.09;;;8.89;68.50
12471;BME280;36499;46.484;13.832;2023-04-27T04:03:07;93194.28;;;8.91;69.13
12471;BME280;36499;46.484;13.832;2023-04-27T04:05:34;93198.28;;;8.87;69.23
12471;BME280;36499;46.484;13.832;2023-04-27T04:08:01;93199.13;;;8.94;68.94
12471;BME280;36499;46.484;13.832;2023-04-27T04:10:28;93218.28;;;8.80;70.00
12471;BME280;36499;46.484;13.832;2023-04-27T04:12:55;93212.88;;;8.94;68.68
12471;BME280;36499;46.484;13.832;2023-04-27T04:15:24;93213.09;;;8.99;69.15
12471;BME280;36499;46.484;13.832;2023-04-27T04:17:51;93215.91;;;9.04;68.93
12471;BME280;36499;46.484;13.832;2023-04-27T04:20:18;93223.50;;;9.06;68.09
12471;BME280;36499;46.484;13.832;2023-04-27T04:22:45;93217.91;;;9.09;68.02
12471;BME280;36499;46.484;13.832;2023-04-27T04:25:12;93220.53;;;9.09;68.49
12471;BME280;36499;46.484;13.832;2023-04-27T04:27:39;93224.09;;;9.14;67.37
12471;BME280;36499;46.484;13.832;2023-04-27T04:30:07;93233.50;;;9.15;67.71
12471;BME280;36499;46.484;13.832;2023-04-27T04:32:36;93223.50;;;9.19;67.50
12471;BME280;36499;46.484;13.832;2023-04-27T04:35:04;93230.31;;;9.20;67.31
12471;BME280;36499;46.484;13.832;2023-04-27T04:37:33;93237.13;;;9.28;67.27
12471;BME280;36499;46.484;13.832;2023-04-27T04:40:04;93234.50;;;9.34;67.21
12471;BME280;36499;46.484;13.832;2023-04-27T04:42:34;93248.72;;;9.38;66.96
12471;BME280;36499;46.484;13.832;2023-04-27T04:45:04;93242.31;;;9.41;66.87
12471;BME280;36499;46.484;13.832;2023-04-27T04:47:31;93244.72;;;9.42;66.70
12471;BME280;36499;46.484;13.832;2023-04-27T04:50:00;93247.91;;;9.44;66.94
12471;BME280;36499;46.484;13.832;2023-04-27T04:52:27;93239.31;;;9.37;66.99
12471;BME280;36499;46.484;13.832;2023-04-27T04:54:54;93253.31;;;9.43;66.86
12471;BME280;36499;46.484;13.832;2023-04-27T04:57:21;93250.72;;;9.43;67.20
12471;BME280;36499;46.484;13.832;2023-04-27T04:59:49;93249.50;;;9.45;66.78
12471;BME280;36499;46.484;13.832;2023-04-27T05:02:16;93243.50;;;9.45;67.12
12471;BME280;36499;46.484;13.832;2023-04-27T05:04:43;93246.13;;;9.38;66.75
12471;BME280;36499;46.484;13.832;2023-04-27T05:07:11;93251.91;;;9.40;66.96
12471;BME280;36499;46.484;13.832;2023-04-27T05:09:39;93243.91;;;9.48;66.66
12471;BME280;36499;46.484;13.832;2023-04-27T05:12:06;93251.31;;;9.45;67.40
12471;BME280;36499;46.484;13.832;2023-04-27T05:14:34;93241.50;;;9.53;66.07
12471;BME280;36499;46.484;13.832;2023-04-27T05:17:01;93246.91;;;9.52;65.84
12471;BME280;36499;46.484;13.832;2023-04-27T05:19:28;93250.09;;;9.47;66.07
12471;BME280;36499;46.484;13.832;2023-04-27T05:21:56;93241.91;;;9.37;66.02
12471;BME280;36499;46.484;13.832;2023-04-27T05:24:25;93248.50;;;9.46;65.71
12471;BME280;36499;46.484;13.832;2023-04-27T05:26:52;93238.47;;;9.56;65.63
12471;BME280;36499;46.484;13.832;2023-04-27T05:29:20;93231.69;;;9.62;65.42
12471;BME280;36499;46.484;13.832;2023-04-27T05:31:47;93234.06;;;9.63;65.32
12471;BME280;36499;46.484;13.832;2023-04-27T05:34:14;93247.50;;;9.60;65.89
12471;BME280;36499;46.484;13.832;2023-04-27T05:36:42;93241.47;;;9.67;65.57
12471;BME280;36499;46.484;13.832;2023-04-27T05:39:09;93231.06;;;9.67;65.57
12471;BME280;36499;46.484;13.832;2023-04-27T05:41:37;93226.47;;;9.69;66.00
12471;BME280;36499;46.484;13.832;2023-04-27T05:44:05;93237.03;;;9.80;65.96
12471;BME280;36499;46.484;13.832;2023-04-27T05:46:32;93243.06;;;9.81;65.93
12471;BME280;36499;46.484;13.832;2023-04-27T05:49:00;93249.47;;;9.85;64.62
12471;BME280;36499;46.484;13.832;2023-04-27T05:51:27;93255.47;;;9.85;64.52
12471;BME280;36499;46.484;13.832;2023-04-27T05:53:54;93270.53;;;9.70;64.06
12471;BME280;36499;46.484;13.832;2023-04-27T05:56:21;93279.91;;;9.84;64.67
12471;BME280;36499;46.484;13.832;2023-04-27T05:58:50;93286.31;;;9.88;64.96
12471;BME280;36499;46.484;13.832;2023-04-27T06:01:17;93285.47;;;9.94;64.47
12471;BME280;36499;46.484;13.832;2023-04-27T06:03:44;93285.28;;;9.96;63.63
12471;BME280;36499;46.484;13.832;2023-04-27T06:06:11;93292.50;;;9.87;64.33
12471;BME280;36499;46.484;13.832;2023-04-27T06:08:38;93286.88;;;9.90;63.12
12471;BME280;36499;46.484;13.832;2023-04-27T06:11:05;93282.28;;;9.86;63.26
12471;BME280;36499;46.484;13.832;2023-04-27T06:13:32;93278.88;;;9.92;62.42
12471;BME280;36499;46.484;13.832;2023-04-27T06:16:01;93289.09;;;10.00;63.57
12471;BME280;36499;46.484;13.832;2023-04-27T06:18:28;93292.09;;;10.03;62.54
12471;BME280;36499;46.484;13.832;2023-04-27T06:20:58;93285.88;;;9.98;62.59
12471;BME280;36499;46.484;13.832;2023-04-27T06:23:26;93290.25;;;10.10;62.67
12471;BME280;36499;46.484;13.832;2023-04-27T06:25:54;93282.66;;;10.16;62.33
12471;BME280;36499;46.484;13.832;2023-04-27T06:28:21;93277.84;;;10.19;62.73
12471;BME280;36499;46.484;13.832;2023-04-27T06:30:48;93275.19;;;10.32;63.44
12471;BME280;36499;46.484;13.832;2023-04-27T06:33:16;93279.19;;;10.35;62.45
12471;BME280;36499;46.484;13.832;2023-04-27T06:35:44;93286.16;;;10.47;62.20
12471;BME280;36499;46.484;13.832;2023-04-27T06:38:11;93278.28;;;10.61;62.81
12471;BME280;36499;46.484;13.832;2023-04-27T06:40:38;93280.22;;;10.72;62.76
12471;BME280;36499;46.484;13.832;2023-04-27T06:43:06;93291.09;;;10.69;61.32
12471;BME280;36499;46.484;13.832;2023-04-27T06:45:33;93287.81;;;10.80;60.93
12471;BME280;36499;46.484;13.832;2023-04-27T06:48:00;93291.84;;;10.76;60.93
12471;BME280;36499;46.484;13.832;2023-04-27T06:50:29;93292.84;;;10.75;60.17
12471;BME280;36499;46.484;13.832;2023-04-27T06:52:56;93290.81;;;10.77;60.63
12471;BME280;36499;46.484;13.832;2023-04-27T06:55:23;93284.38;;;10.86;60.54
12471;BME280;36499;46.484;13.832;2023-04-27T06:57:50;93278.72;;;10.89;60.05
12471;BME280;36499;46.484;13.832;2023-04-27T07:00:18;93295.75;;;10.98;59.69
12471;BME280;36499;46.484;13.832;2023-04-27T07:02:45;93290.16;;;10.94;60.06
12471;BME280;36499;46.484;13.832;2023-04-27T07:05:12;93296.75;;;10.97;58.65
12471;BME280;36499;46.484;13.832;2023-04-27T07:07:41;93293.56;;;10.95;58.97
12471;BME280;36499;46.484;13.832;2023-04-27T07:10:09;93303.31;;;11.06;58.47
12471;BME280;36499;46.484;13.832;2023-04-27T07:12:36;93300.84;;;11.11;58.44
12471;BME280;36499;46.484;13.832;2023-04-27T07:15:04;93296.69;;;11.10;58.07
12471;BME280;36499;46.484;13.832;2023-04-27T07:17:32;93282.59;;;11.11;58.03
12471;BME280;36499;46.484;13.832;2023-04-27T07:20:00;93289.59;;;11.17;58.10
12471;BME280;36499;46.484;13.832;2023-04-27T07:22:28;93294.13;;;11.28;58.02
12471;BME280;36499;46.484;13.832;2023-04-27T07:24:57;93289.84;;;11.40;59.12
12471;BME280;36499;46.484;13.832;2023-04-27T07:27:24;93289.22;;;11.45;58.44
12471;BME280;36499;46.484;13.832;2023-04-27T07:29:52;93282.63;;;11.61;57.84
12471;BME280;36499;46.484;13.832;2023-04-27T07:32:19;93288.97;;;11.78;58.90
12471;BME280;36499;46.484;13.832;2023-04-27T07:34:47;93288.97;;;11.96;56.23
12471;BME280;36499;46.484;13.832;2023-04-27T07:37:15;93283.75;;;11.96;57.65
12471;BME280;36499;46.484;13.832;2023-04-27T07:39:42;93278.63;;;12.08;57.71
12471;BME280;36499;46.484;13.832;2023-04-27T07:42:11;93286.53;;;12.19;56.44
12471;BME280;36499;46.484;13.832;2023-04-27T07:44:38;93295.28;;;12.31;56.58
12471;BME280;36499;46.484;13.832;2023-04-27T07:47:07;93293.22;;;12.33;54.62
12471;BME280;36499;46.484;13.832;2023-04-27T07:49:35;93294.25;;;12.32;54.92
12471;BME280;36499;46.484;13.832;2023-04-27T07:52:03;93294.03;;;12.34;54.33
12471;BME280;36499;46.484;13.832;2023-04-27T07:54:30;93292.38;;;12.39;55.03
12471;BME280;36499;46.484;13.832;2023-04-27T07:56:57;93291.84;;;12.49;55.32
12471;BME280;36499;46.484;13.832;2023-04-27T07:59:27;93284.38;;;12.34;53.73
12471;BME280;36499;46.484;13.832;2023-04-27T08:01:54;93289.03;;;12.50;54.63
12471;BME280;36499;46.484;13.832;2023-04-27T08:04:22;93286.22;;;12.64;54.92
12471;BME280;36499;46.484;13.832;2023-04-27T08:06:49;93277.47;;;12.88;56.11
12471;BME280;36499;46.484;13.832;2023-04-27T08:09:16;93281.66;;;13.07;55.94
12471;BME280;36499;46.484;13.832;2023-04-27T08:11:43;93280.16;;;13.29;56.12
12471;BME280;36499;46.484;13.832;2023-04-27T08:14:10;93276.34;;;13.67;54.16
12471;BME280;36499;46.484;13.832;2023-04-27T08:16:41;93265.06;;;14.01;53.39
12471;BME280;36499;46.484;13.832;2023-04-27T08:19:10;93266.00;;;14.18;52.67
12471;BME280;36499;46.484;13.832;2023-04-27T08:21:37;93257.66;;;14.21;51.64
12471;BME280;36499;46.484;13.832;2023-04-27T08:24:05;93252.28;;;14.16;52.49
12471;BME280;36499;46.484;13.832;2023-04-27T08:26:32;93258.09;;;14.30;51.13
12471;BME280;36499;46.484;13.832;2023-04-27T08:29:00;93248.19;;;14.44;52.38
12471;BME280;36499;46.484;13.832;2023-04-27T08:31:28;93248.63;;;14.80;52.08
12471;BME280;36499;46.484;13.832;2023-04-27T08:33:56;93256.66;;;15.02;51.89
12471;BME280;36499;46.484;13.832;2023-04-27T08:36:24;93256.66;;;15.02;51.88
12471;BME280;36499;46.484;13.832;2023-04-27T08:38:53;93255.16;;;14.78;49.50
12471;BME280;36499;46.484;13.832;2023-04-27T08:41:22;93260.06;;;14.74;50.78
12471;BME280;36499;46.484;13.832;2023-04-27T08:43:51;93259.84;;;14.76;50.44
12471;BME280;36499;46.484;13.832;2023-04-27T08:46:19;93259.97;;;14.69;50.36
12471;BME280;36499;46.484;13.832;2023-04-27T08:48:49;93248.91;;;14.67;49.63
12471;BME280;36499;46.484;13.832;2023-04-27T08:51:18;93251.28;;;14.69;49.96
12471;BME280;36499;46.484;13.832;2023-04-27T08:53:48;93250.38;;;14.75;51.45
12471;BME280;36499;46.484;13.832;2023-04-27T08:56:16;93262.00;;;14.79;49.61
12471;BME280;36499;46.484;13.832;2023-04-27T08:58:43;93260.28;;;14.73;49.04
12471;BME280;36499;46.484;13.832;2023-04-27T09:01:11;93256.97;;;14.77;50.11
12471;BME280;36499;46.484;13.832;2023-04-27T09:03:38;93248.81;;;14.62;49.77
12471;BME280;36499;46.484;13.832;2023-04-27T09:06:06;93247.84;;;14.40;49.98
12471;BME280;36499;46.484;13.832;2023-04-27T09:08:43;93254.69;;;14.81;50.87
12471;BME280;36499;46.484;13.832;2023-04-27T09:11:11;93250.13;;;14.76;48.68
12471;BME280;36499;46.484;13.832;2023-04-27T09:13:40;93244.44;;;14.79;50.60
12471;BME280;36499;46.484;13.832;2023-04-27T09:16:11;93244.69;;;14.66;49.90
12471;BME280;36499;46.484;13.832;2023-04-27T09:18:42;93249.91;;;14.78;50.05
12471;BME280;36499;46.484;13.832;2023-04-27T09:21:09;93244.28;;;14.86;49.70
12471;BME280;36499;46.484;13.832;2023-04-27T09:23:38;93242.31;;;14.93;49.88
12471;BME280;36499;46.484;13.832;2023-04-27T09:26:08;93240.75;;;15.09;51.13
12471;BME280;36499;46.484;13.832;2023-04-27T09:28:38;93237.97;;;15.15;49.53
12471;BME280;36499;46.484;13.832;2023-04-27T09:31:06;93231.88;;;15.26;48.90
12471;BME280;36499;46.484;13.832;2023-04-27T09:33:35;93238.94;;;15.26;49.38
12471;BME280;36499;46.484;13.832;2023-04-27T09:36:05;93233.09;;;15.35;48.01
12471;BME280;36499;46.484;13.832;2023-04-27T09:38:32;93232.06;;;15.36;49.30
12471;BME280;36499;46.484;13.832;2023-04-27T09:41:00;93223.75;;;15.45;48.48
12471;BME280;36499;46.484;13.832;2023-04-27T09:43:29;93220.66;;;15.48;48.40
12471;BME280;36499;46.484;13.832;2023-04-27T09:45:57;93221.34;;;15.55;48.74
12471;BME280;36499;46.484;13.832;2023-04-27T09:48:25;93219.13;;;15.63;49.39
12471;BME280;36499;46.484;13.832;2023-04-27T09:50:52;93220.44;;;15.66;48.80
12471;BME280;36499;46.484;13.832;2023-04-27T09:53:24;93214.16;;;15.67;48.01
12471;BME280;36499;46.484;13.832;2023-04-27T09:56:12;93218.06;;;15.81;49.78
12471;BME280;36499;46.484;13.832;2023-04-27T09:59:09;93211.66;;;15.94;47.71
12471;BME280;36499;46.484;13.832;2023-04-27T10:01:46;93211.13;;;15.75;46.17
12471;BME280;36499;46.484;13.832;2023-04-27T10:04:33;93213.09;;;15.84;47.14
12471;BME280;36499;46.484;13.832;2023-04-27T10:07:06;93219.00;;;15.92;46.39
12471;BME280;36499;46.484;13.832;2023-04-27T10:09:36;93212.94;;;15.91;47.34
12471;BME280;36499;46.484;13.832;2023-04-27T10:12:17;93218.06;;;15.81;46.79
12471;BME280;36499;46.484;13.832;2023-04-27T10:14:51;93208.81;;;15.78;46.16
12471;BME280;36499;46.484;13.832;2023-04-27T10:17:23;93211.19;;;15.80;46.23
12471;BME280;36499;46.484;13.832;2023-04-27T10:19:56;93205.00;;;15.86;48.29
12471;BME280;36499;46.484;13.832;2023-04-27T10:22:35;93204.63;;;15.99;47.74
12471;BME280;36499;46.484;13.832;2023-04-27T10:25:13;93200.44;;;16.20;48.02
12471;BME280;36499;46.484;13.832;2023-04-27T10:27:42;93185.09;;;16.33;46.34
12471;BME280;36499;46.484;13.832;2023-04-27T10:30:13;93185.09;;;16.77;47.82
12471;BME280;36499;46.484;13.832;2023-04-27T10:32:50;93186.78;;;16.88;45.29
12471;BME280;36499;46.484;13.832;2023-04-27T10:35:19;93196.31;;;16.94;45.63
12471;BME280;36499;46.484;13.832;2023-04-27T10:37:47;93186.63;;;16.29;44.54
12471;BME280;36499;46.484;13.832;2023-04-27T10:40:14;93184.66;;;16.42;46.27
12471;BME280;36499;46.484;13.832;2023-04-27T10:42:44;93185.19;;;16.44;45.57
12471;BME280;36499;46.484;13.832;2023-04-27T10:45:26;93181.97;;;16.37;45.74
12471;BME280;36499;46.484;13.832;2023-04-27T10:47:58;93185.16;;;16.39;48.08
12471;BME280;36499;46.484;13.832;2023-04-27T10:50:27;93181.72;;;16.60;46.70
12471;BME280;36499;46.484;13.832;2023-04-27T10:52:59;93171.72;;;16.57;47.90
12471;BME280;36499;46.484;13.832;2023-04-27T10:55:28;93181.09;;;16.53;46.83
12471;BME280;36499;46.484;13.832;2023-04-27T10:57:56;93176.59;;;16.70;46.41
12471;BME280;36499;46.484;13.832;2023-04-27T11:00:27;93181.31;;;16.68;48.30
12471;BME280;36499;46.484;13.832;2023-04-27T11:02:56;93186.50;;;16.85;46.68
12471;BME280;36499;46.484;13.832;2023-04-27T11:05:26;93185.13;;;16.82;46.57
12471;BME280;36499;46.484;13.832;2023-04-27T11:08:05;93180.63;;;16.77;45.79
12471;BME280;36499;46.484;13.832;2023-04-27T11:10:33;93180.31;;;16.74;45.99
12471;BME280;36499;46.484;13.832;2023-04-27T11:13:08;93183.44;;;16.49;46.28
12471;BME280;36499;46.484;13.832;2023-04-27T11:15:45;93178.09;;;16.44;47.19
12471;BME280;36499;46.484;13.832;2023-04-27T11:18:13;93178.56;;;16.58;47.50
12471;BME280;36499;46.484;13.832;2023-04-27T11:20:43;93184.66;;;16.63;47.89
12471;BME280;36499;46.484;13.832;2023-04-27T11:23:21;93170.47;;;16.91;48.00
12471;BME280;36499;46.484;13.832;2023-04-27T11:25:49;93163.38;;;16.92;47.60
12471;BME280;36499;46.484;13.832;2023-04-27T11:28:16;93170.28;;;16.98;45.79
12471;BME280;36499;46.484;13.832;2023-04-27T11:30:45;93160.47;;;17.20;48.33
12471;BME280;36499;46.484;13.832;2023-04-27T11:33:12;93158.47;;;17.64;49.13
12471;BME280;36499;46.484;13.832;2023-04-27T11:35:39;93158.09;;;17.87;46.01
12471;BME280;36499;46.484;13.832;2023-04-27T11:38:14;93153.91;;;17.91;45.36
12471;BME280;36499;46.484;13.832;2023-04-27T11:40:41;93154.19;;;18.00;44.36
12471;BME280;36499;46.484;13.832;2023-04-27T11:43:12;93149.38;;;18.34;45.54
12471;BME280;36499;46.484;13.832;2023-04-27T11:45:45;93156.63;;;18.06;45.22
12471;BME280;36499;46.484;13.832;2023-04-27T11:48:15;93151.53;;;17.95;43.48
12471;BME280;36499;46.484;13.832;2023-04-27T11:50:46;93156.44;;;17.76;42.96
12471;BME280;36499;46.484;13.832;2023-04-27T11:53:13;93156.66;;;17.69;42.99
12471;BME280;36499;46.484;13.832;2023-04-27T11:55:40;93154.63;;;17.82;46.05
12471;BME280;36499;46.484;13.832;2023-04-27T11:58:12;93157.00;;;17.46;44.76
12471;BME280;36499;46.484;13.832;2023-04-27T12:00:40;93149.88;;;17.47;44.57
12471;BME280;36499;46.484;13.832;2023-04-27T12:03:09;93153.81;;;17.44;46.51
12471;BME280;36499;46.484;13.832;2023-04-27T12:05:46;93145.09;;;17.44;46.06
12471;BME280;36499;46.484;13.832;2023-04-27T12:08:15;93145.00;;;17.60;45.29
12471;BME280;36499;46.484;13.832;2023-04-27T12:10:44;93136.88;;;17.67;44.89
12471;BME280;36499;46.484;13.832;2023-04-27T12:13:11;93143.28;;;17.81;45.13
12471;BME280;36499;46.484;13.832;2023-04-27T12:15:39;93144.91;;;17.92;45.52
12471;BME280;36499;46.484;13.832;2023-04-27T12:18:08;93146.31;;;18.05;43.11
12471;BME280;36499;46.484;13.832;2023-04-27T12:20:36;93138.50;;;18.25;43.83
12471;BME280;36499;46.484;13.832;2023-04-27T12:23:03;93135.13;;;18.40;42.84
12471;BME280;36499;46.484;13.832;2023-04-27T12:25:30;93138.59;;;18.50;43.07
12471;BME280;36499;46.484;13.832;2023-04-27T12:27:57;93139.44;;;18.56;43.16
12471;BME280;36499;46.484;13.832;2023-04-27T12:30:25;93135.63;;;18.37;42.04
12471;BME280;36499;46.484;13.832;2023-04-27T12:32:53;93131.91;;;18.28;41.93
12471;BME280;36499;46.484;13.832;2023-04-27T12:35:21;93142.34;;;18.07;43.19
12471;BME280;36499;46.484;13.832;2023-04-27T12:37:48;93138.47;;;17.68;43.20
12471;BME280;36499;46.484;13.832;2023-04-27T12:40:17;93139.94;;;17.54;44.00
12471;BME280;36499;46.484;13.832;2023-04-27T12:42:44;93142.41;;;17.34;44.81
12471;BME280;36499;46.484;13.832;2023-04-27T12:45:11;93138.63;;;17.24;45.79
12471;BME280;36499;46.484;13.832;2023-04-27T12:47:38;93147.88;;;16.95;45.39
12471;BME280;36499;46.484;13.832;2023-04-27T12:50:07;93155.63;;;16.80;46.17
12471;BME280;36499;46.484;13.832;2023-04-27T12:52:36;93149.34;;;16.86;47.64
12471;BME280;36499;46.484;13.832;2023-04-27T12:55:04;93135.72;;;16.89;47.80
12471;BME280;36499;46.484;13.832;2023-04-27T12:57:32;93151.34;;;16.74;48.66
12471;BME280;36499;46.484;13.832;2023-04-27T13:00:00;93146.56;;;16.71;49.42
12471;BME280;36499;46.484;13.832;2023-04-27T13:02:29;93155.72;;;16.42;49.40